Rock Rapids, IA

12:10 PM CDT on August 30, 2014 (GMT -0500)
IEM Rock Rapids _ Central Lyon MS KELO-TV | Change Station
CLOSE
Current Station
Personal Weather Station
Location: Rock Rapids, IA
Elevation: 1345 ft
Nearby Weather Stations

Elev 1345 ft 43.42 °N, 96.17 °W | Updated 123 days ago

Clear
Clear
73 °F
Feels Like 73 °F
N
5
Wind Variable Wind from NW
Gusts 5 mph

Today
High -- | Low -- °F
--% Chance of Precip.
Yesterday
High -- | Low -- °F
Precip. -- in
6:46 AM 8:03 PM
Waxing Crescent, 23% visible
Pressure 29.93 in
Visibility 10.0 miles
Clouds Mostly Cloudy 1200 ft
Overcast 2300 ft
Dew Point 63 °F
Humidity 67%
Rainfall -999.00 in
Snow Depth Not available.
UV 2 out of 12
Pollen 9.00 out of 12
Air Quality Not available.
Flu Activity Not available.
METAR KLYV 301654Z AUTO 30005KT 10SM BKN012 OVC023 20/16 A2993 RMK AO2

More Conditions Fewer Conditions

Pressure 29.93 in
Visibility 10.0 miles
Clouds Mostly Cloudy 1200 ft
Overcast 2300 ft
Dew Point 63 °F
Humidity 67%
Rainfall -999.00 in
Snow Depth Not available.
UV 2 out of 12
Pollen 9.00 out of 12
Air Quality Not available.
Flu Activity Not available.
METAR KLYV 301654Z AUTO 30005KT 10SM BKN012 OVC023 20/16 A2993 RMK AO2

More Conditions Fewer Conditions

10-Day Weather Forecast

Almanac

Astronomy

Aug. 30, 2014 Rise Set
Actual Time 6:46 AM CDT 8:03 PM CDT
Civil Twilight 6:16 AM CDT 8:32 PM CDT
Nautical Twilight 5:41 AM CDT 9:08 PM CDT
Astronomical Twilight 5:03 AM CDT 9:45 PM CDT
Moon 11:44 AM CDT 10:28 PM CDT
Length of Visible Light 14h 15m
Length of Day
13h 16m
Tomorrow will be 2m 50s shorter.
Waxing Crescent, 23% of the Moon is Illuminated
Today
Waxing Crescent
Sep 2
First Quarter
Sep 8
Full
Sep 15
Last Quarter
Sep 24
New

Today's Extremes

State Highs State Lows

Community

WunderPhotos

Upload Photos

1,748,576 photos uploaded!

WunderBlogs® & News

Nearby

Snow Depth

Station Depth Elevation
No new snow has been reported.

Earthquake Activity

City Distance Mag. Time & Date
No recent earthquake activity has been reported nearby.
Minimum magnitude displayed is 2.5.

Coastal Water Temperatures

Place Temperature
No Stations Reporting

Nearby Weather Stations